Time;durP1;ratioP1;P1;durP2;ratioP2;P2;SDS_P1;SDS_P2;PMS_P1;PMS_P2;Temp;Humidity;BMP_temperature;BMP_pressure;BME280_temperature;BME280_humidity;BME280_pressure;Samples;Min_cycle;Max_cycle;Signal;HPM_P1;HPM_P2
2021/01/29 00:00:27;;;;;;;4.57;0.80;;;10.00;99.90;;;;;;5094370;28;20661;-94
2021/01/29 00:02:56;;;;;;;1.73;0.70;;;10.00;99.90;;;;;;5088742;28;20646;-96
2021/01/29 00:05:26;;;;;;;1.10;0.70;;;9.90;99.90;;;;;;5093474;28;20617;-93
2021/01/29 00:07:53;;;;;;;0.80;0.77;;;9.90;99.90;;;;;;5091577;28;20664;-92
2021/01/29 00:10:21;;;;;;;0.60;0.60;;;10.30;99.90;;;;;;5078885;28;20647;-93
2021/01/29 00:12:48;;;;;;;1.07;0.70;;;10.00;99.90;;;;;;5091758;28;20609;-92
2021/01/29 00:15:20;;;;;;;0.80;0.70;;;9.90;99.90;;;;;;5090874;28;20629;-92
2021/01/29 00:17:48;;;;;;;0.60;0.57;;;9.90;99.90;;;;;;5093307;28;20642;-92
2021/01/29 00:20:19;;;;;;;0.60;0.50;;;9.90;99.90;;;;;;5093175;28;20686;-92
2021/01/29 00:22:45;;;;;;;0.70;0.50;;;9.80;99.90;;;;;;5092951;28;20656;-92
2021/01/29 00:25:19;;;;;;;2.17;0.57;;;9.80;99.90;;;;;;5091804;28;20625;-92
2021/01/29 00:27:46;;;;;;;1.00;0.70;;;9.80;99.90;;;;;;5090879;28;20617;-92
2021/01/29 00:30:15;;;;;;;0.70;0.53;;;9.70;99.90;;;;;;5075821;28;20637;-91
2021/01/29 00:32:44;;;;;;;1.13;0.80;;;9.70;99.90;;;;;;5092118;28;20640;-92
2021/01/29 00:35:14;;;;;;;0.53;0.40;;;9.70;99.90;;;;;;5092644;28;20633;-92
2021/01/29 00:37:41;;;;;;;1.33;0.93;;;9.70;99.90;;;;;;5091530;28;20637;-90
2021/01/29 00:40:08;;;;;;;1.00;0.63;;;9.70;99.90;;;;;;5098624;28;20629;-91
2021/01/29 00:42:35;;;;;;;0.70;0.70;;;9.50;99.90;;;;;;5087191;28;20667;-92
2021/01/29 00:45:02;;;;;;;0.60;0.50;;;9.50;99.90;;;;;;5071771;28;20648;-91
2021/01/29 00:47:29;;;;;;;1.13;0.63;;;9.30;99.90;;;;;;5067418;28;20640;-91
2021/01/29 00:49:55;;;;;;;0.80;0.70;;;9.30;99.90;;;;;;5064012;28;20941;-91
2021/01/29 00:52:23;;;;;;;0.97;0.80;;;9.30;99.90;;;;;;5050132;28;20641;-90
2021/01/29 00:54:49;;;;;;;1.30;1.20;;;9.20;99.90;;;;;;5068551;28;20636;-91
2021/01/29 00:57:15;;;;;;;1.20;1.10;;;9.20;99.90;;;;;;5067051;28;20691;-91
2021/01/29 00:59:42;;;;;;;3.80;1.10;;;9.20;99.90;;;;;;5067991;28;20660;-90
2021/01/29 01:02:08;;;;;;;1.97;0.90;;;9.30;99.90;;;;;;5067713;28;20659;-90
2021/01/29 01:04:34;;;;;;;1.27;0.70;;;9.30;99.90;;;;;;5063154;28;20678;-90
2021/01/29 01:07:00;;;;;;;1.53;0.90;;;9.40;99.90;;;;;;5067745;28;20702;-90
2021/01/29 01:09:28;;;;;;;1.10;1.00;;;9.40;99.90;;;;;;5067854;28;20635;-90
2021/01/29 01:11:57;;;;;;;0.80;0.80;;;9.40;99.90;;;;;;5068050;28;20679;-93
2021/01/29 01:14:24;;;;;;;1.20;0.93;;;9.40;99.90;;;;;;5061833;28;20626;-94
2021/01/29 01:16:50;;;;;;;1.50;0.80;;;9.50;99.90;;;;;;5074644;28;20690;-95
2021/01/29 01:19:17;;;;;;;0.97;0.73;;;9.50;99.90;;;;;;5071279;28;20649;-95
2021/01/29 01:21:44;;;;;;;0.97;0.73;;;9.40;99.90;;;;;;5074563;28;20652;-96
2021/01/29 01:24:10;;;;;;;0.77;0.77;;;9.50;99.90;;;;;;5074519;28;20640;-96
2021/01/29 01:26:39;;;;;;;1.17;1.03;;;9.60;99.90;;;;;;5074634;28;20752;-95
2021/01/29 01:29:05;;;;;;;2.77;1.40;;;9.50;99.90;;;;;;5074031;28;20658;-95
2021/01/29 01:31:32;;;;;;;1.23;1.10;;;9.40;99.90;;;;;;5060452;28;20752;-95
2021/01/29 01:34:01;;;;;;;1.47;0.63;;;9.40;99.90;;;;;;5071327;28;20637;-95
2021/01/29 01:36:32;;;;;;;0.60;0.60;;;9.40;99.90;;;;;;5073082;28;20633;-96
2021/01/29 01:38:58;;;;;;;0.83;0.70;;;9.30;99.90;;;;;;5072718;28;20637;-93
2021/01/29 01:41:24;;;;;;;1.67;0.70;;;9.40;99.90;;;;;;5062692;28;20662;-95
2021/01/29 01:43:52;;;;;;;1.40;0.70;;;9.50;99.90;;;;;;5065870;28;20648;-94
2021/01/29 01:46:20;;;;;;;1.10;0.60;;;9.40;99.90;;;;;;5068629;28;20639;-94
2021/01/29 01:48:56;;;;;;;1.63;1.00;;;9.30;99.90;;;;;;5068886;28;20633;-95
2021/01/29 01:51:30;;;;;;;1.30;1.00;;;9.30;99.90;;;;;;5068534;28;20664;-95
2021/01/29 01:53:59;;;;;;;1.20;1.10;;;9.20;99.90;;;;;;5068474;28;20664;-94
2021/01/29 01:56:34;;;;;;;1.50;1.20;;;9.20;99.90;;;;;;5066978;28;20629;-96
2021/01/29 01:59:06;;;;;;;1.20;1.10;;;9.20;99.90;;;;;;5070783;28;20731;-96
2021/01/29 02:01:35;;;;;;;2.00;1.37;;;9.20;99.90;;;;;;5064300;28;21215;-95
2021/01/29 02:04:03;;;;;;;1.50;1.00;;;9.20;99.90;;;;;;5069652;28;20655;-96
2021/01/29 02:06:48;;;;;;;0.90;0.87;;;9.20;99.90;;;;;;5069086;28;20647;-96
2021/01/29 02:09:16;;;;;;;1.50;1.10;;;9.20;99.90;;;;;;5068043;28;20613;-95
2021/01/29 02:11:43;;;;;;;1.00;0.80;;;9.10;99.90;;;;;;5070971;28;20998;-95
2021/01/29 02:14:11;;;;;;;1.50;1.40;;;9.10;99.90;;;;;;5054566;28;20649;-95
2021/01/29 02:16:50;;;;;;;1.20;0.90;;;9.00;99.90;;;;;;5086095;28;20615;-95
2021/01/29 02:19:57;;;;;;;0.93;0.83;;;9.00;99.90;;;;;;5091304;28;20624;-95
2021/01/29 02:23:07;;;;;;;0.87;0.70;;;9.00;99.90;;;;;;5073137;28;20685;-96
2021/01/29 02:26:25;;;;;;;0.97;0.97;;;9.00;99.90;;;;;;5072038;28;20629;-96
2021/01/29 02:29:27;;;;;;;2.87;0.80;;;9.20;99.90;;;;;;5068159;28;20633;-92
2021/01/29 02:32:25;;;;;;;1.73;0.60;;;9.30;99.90;;;;;;5048469;28;20635;-93
2021/01/29 02:35:19;;;;;;;0.87;0.70;;;9.40;99.90;;;;;;5067281;28;20651;-92
2021/01/29 02:38:21;;;;;;;1.47;0.80;;;9.50;99.90;;;;;;5073136;28;20649;-93
2021/01/29 02:40:57;;;;;;;1.80;0.60;;;9.50;99.90;;;;;;5068109;28;20667;-93
2021/01/29 02:43:48;;;;;;;0.73;0.60;;;9.60;99.90;;;;;;5071552;28;20668;-92
2021/01/29 02:46:27;;;;;;;1.03;0.90;;;9.60;99.90;;;;;;5067541;28;20602;-92
2021/01/29 02:49:02;;;;;;;0.60;0.60;;;9.60;99.90;;;;;;5067689;28;20612;-92
2021/01/29 02:51:39;;;;;;;1.10;0.77;;;9.70;99.90;;;;;;5070377;28;21230;-93
2021/01/29 02:54:15;;;;;;;1.13;0.70;;;9.70;99.90;;;;;;5065035;28;20721;-92
2021/01/29 02:56:53;;;;;;;0.93;0.50;;;9.70;99.90;;;;;;5066640;28;20648;-92
2021/01/29 02:59:27;;;;;;;1.00;0.80;;;9.70;99.90;;;;;;5071121;28;20699;-93
2021/01/29 03:02:00;;;;;;;0.80;0.50;;;9.70;99.90;;;;;;5066647;28;20708;-92
2021/01/29 03:04:30;;;;;;;1.83;0.63;;;9.80;99.90;;;;;;5070204;28;20644;-93
2021/01/29 03:07:03;;;;;;;0.60;0.60;;;9.80;99.90;;;;;;5068644;28;20678;-92
2021/01/29 03:09:37;;;;;;;2.60;0.60;;;9.80;99.90;;;;;;5070572;28;20632;-91
2021/01/29 03:12:07;;;;;;;0.90;0.67;;;9.80;99.90;;;;;;5049167;28;20618;-94
2021/01/29 03:14:51;;;;;;;0.93;0.60;;;9.80;99.90;;;;;;5054949;28;20694;-92
2021/01/29 03:17:25;;;;;;;0.63;0.60;;;9.80;99.90;;;;;;5087609;28;21270;-90
2021/01/29 03:20:06;;;;;;;0.90;0.90;;;9.90;99.90;;;;;;5087410;28;20732;-89
2021/01/29 03:22:45;;;;;;;0.70;0.60;;;9.90;99.90;;;;;;5073712;28;20648;-90
2021/01/29 03:25:19;;;;;;;0.73;0.73;;;9.80;99.90;;;;;;5065429;28;20602;-90
2021/01/29 03:27:51;;;;;;;1.37;0.70;;;9.80;99.90;;;;;;5068234;28;20665;-90
2021/01/29 03:30:23;;;;;;;0.60;0.50;;;9.90;99.90;;;;;;5067808;28;21263;-89
2021/01/29 03:32:53;;;;;;;0.97;0.87;;;9.90;99.90;;;;;;5071324;28;20609;-90
2021/01/29 03:35:23;;;;;;;1.43;0.53;;;9.90;99.90;;;;;;5067198;28;21293;-89
2021/01/29 03:37:54;;;;;;;0.70;0.67;;;9.90;99.90;;;;;;5067505;28;20633;-90
2021/01/29 03:40:22;;;;;;;0.70;0.57;;;9.90;99.90;;;;;;5067073;28;21051;-89
2021/01/29 03:43:01;;;;;;;1.57;0.70;;;9.80;99.90;;;;;;5063063;28;21324;-91
2021/01/29 03:45:39;;;;;;;0.60;0.43;;;9.90;99.90;;;;;;5065728;28;20644;-91
2021/01/29 03:48:22;;;;;;;1.00;0.90;;;9.90;99.90;;;;;;5066626;28;20946;-90
2021/01/29 03:50:55;;;;;;;0.50;0.40;;;9.80;99.90;;;;;;5068998;28;21253;-91
2021/01/29 03:53:40;;;;;;;0.67;0.60;;;9.90;99.90;;;;;;5068191;28;20634;-91
2021/01/29 03:56:21;;;;;;;0.70;0.50;;;9.80;99.90;;;;;;5050292;28;20628;-92
2021/01/29 03:59:00;;;;;;;1.17;0.77;;;9.90;99.90;;;;;;5070689;28;20648;-92
2021/01/29 04:01:37;;;;;;;0.77;0.50;;;10.00;99.90;;;;;;5068736;28;20664;-92
2021/01/29 04:04:11;;;;;;;0.43;0.40;;;9.90;99.90;;;;;;5067849;28;21101;-94
2021/01/29 04:06:49;;;;;;;0.60;0.50;;;9.80;99.90;;;;;;5070344;28;20633;-94
2021/01/29 04:09:23;;;;;;;0.70;0.50;;;9.90;99.90;;;;;;5076512;28;20701;-94
2021/01/29 04:11:55;;;;;;;0.50;0.40;;;9.80;99.90;;;;;;5067136;28;20635;-93
2021/01/29 04:14:29;;;;;;;0.40;0.40;;;9.80;99.90;;;;;;5068939;28;20989;-93
2021/01/29 04:17:00;;;;;;;0.53;0.50;;;9.90;99.90;;;;;;5072636;28;20635;-94
2021/01/29 04:19:30;;;;;;;0.80;0.40;;;9.90;99.90;;;;;;5067765;28;20612;-92
2021/01/29 04:22:04;;;;;;;0.97;0.50;;;9.80;99.90;;;;;;5073022;28;21031;-93
2021/01/29 04:24:35;;;;;;;0.60;0.50;;;9.80;99.90;;;;;;5072445;28;20672;-93
2021/01/29 04:27:11;;;;;;;0.70;0.50;;;9.80;99.90;;;;;;5065492;28;20745;-92
2021/01/29 04:29:43;;;;;;;0.70;0.47;;;9.80;99.90;;;;;;5070195;28;20664;-93
2021/01/29 04:32:13;;;;;;;0.60;0.40;;;9.70;99.90;;;;;;5070402;28;20629;-93
2021/01/29 04:34:45;;;;;;;0.93;0.60;;;9.70;99.90;;;;;;5067060;28;20617;-93
2021/01/29 04:37:17;;;;;;;1.17;0.50;;;9.80;99.90;;;;;;5048848;28;20661;-92
2021/01/29 04:39:49;;;;;;;2.57;0.97;;;9.70;99.90;;;;;;5067717;28;20702;-92
2021/01/29 04:42:43;;;;;;;1.57;0.93;;;9.60;99.90;;;;;;5069967;28;21198;-93
2021/01/29 04:45:41;;;;;;;1.10;0.90;;;9.60;99.90;;;;;;5068198;28;20757;-93
2021/01/29 04:48:14;;;;;;;1.10;0.40;;;9.60;99.90;;;;;;5047770;28;20989;-91
2021/01/29 04:50:52;;;;;;;1.00;0.53;;;9.60;99.90;;;;;;5069768;28;21026;-92
2021/01/29 04:53:53;;;;;;;2.63;0.40;;;9.50;99.90;;;;;;5062826;28;20681;-94
2021/01/29 04:56:40;;;;;;;1.63;0.70;;;9.50;99.90;;;;;;5044647;28;20976;-94
2021/01/29 04:59:31;;;;;;;1.30;0.50;;;9.40;99.90;;;;;;5068229;28;20632;-93
2021/01/29 05:02:45;;;;;;;2.00;0.50;;;9.50;99.90;;;;;;5066287;28;20687;-93
2021/01/29 05:06:10;;;;;;;1.37;0.60;;;9.50;99.90;;;;;;5060123;28;21214;-94
2021/01/29 05:09:20;;;;;;;0.70;0.60;;;9.40;99.90;;;;;;5065474;28;20640;-93
2021/01/29 05:12:18;;;;;;;1.80;0.40;;;9.40;99.90;;;;;;5067311;28;20731;-93
2021/01/29 05:15:25;;;;;;;0.90;0.40;;;9.40;99.90;;;;;;5064452;28;20673;-93
2021/01/29 05:18:22;;;;;;;0.73;0.40;;;9.50;99.90;;;;;;5067109;28;20667;-93
2021/01/29 05:21:20;;;;;;;0.60;0.30;;;9.50;99.90;;;;;;5066394;28;20643;-94
2021/01/29 05:24:14;;;;;;;0.77;0.47;;;9.40;99.90;;;;;;5069517;28;20668;-93
2021/01/29 05:27:06;;;;;;;1.23;0.40;;;9.50;99.90;;;;;;5031604;28;20640;-93
2021/01/29 05:29:49;;;;;;;1.33;0.40;;;9.50;99.90;;;;;;5053687;28;20623;-93
2021/01/29 05:32:48;;;;;;;1.03;0.50;;;9.50;99.90;;;;;;5068448;28;20621;-92
2021/01/29 05:35:29;;;;;;;0.80;0.50;;;9.50;99.90;;;;;;5071123;28;20656;-94
2021/01/29 05:38:31;;;;;;;2.03;0.60;;;9.50;99.90;;;;;;5059577;28;20619;-93
2021/01/29 05:41:20;;;;;;;1.00;0.60;;;9.40;99.90;;;;;;5085158;28;20679;-93
2021/01/29 05:44:13;;;;;;;0.50;0.40;;;9.30;99.90;;;;;;5068677;28;20711;-92
2021/01/29 05:46:44;;;;;;;0.70;0.40;;;9.30;99.90;;;;;;5065008;28;20661;-91
2021/01/29 05:49:21;;;;;;;0.60;0.60;;;9.20;99.90;;;;;;5066931;28;20673;-92
2021/01/29 05:52:10;;;;;;;1.93;0.50;;;9.20;99.90;;;;;;5067535;28;20682;-92
2021/01/29 05:55:11;;;;;;;2.50;0.60;;;9.10;99.90;;;;;;5072275;28;21242;-91
2021/01/29 05:58:12;;;;;;;1.60;1.50;;;9.10;99.90;;;;;;5069247;28;20645;-93
2021/01/29 06:01:15;;;;;;;1.50;1.20;;;9.00;99.90;;;;;;5049131;28;20629;-93
2021/01/29 06:04:06;;;;;;;1.73;0.80;;;8.90;99.90;;;;;;5074892;28;20656;-92
2021/01/29 06:06:54;;;;;;;0.80;0.50;;;8.90;99.90;;;;;;5071514;28;20679;-92
2021/01/29 06:09:38;;;;;;;1.00;0.60;;;8.90;99.90;;;;;;5072971;28;20695;-92
2021/01/29 06:12:34;;;;;;;2.30;0.43;;;8.90;99.90;;;;;;5074449;28;20648;-93
2021/01/29 06:15:15;;;;;;;0.80;0.63;;;8.90;99.90;;;;;;5066288;28;20672;-92
2021/01/29 06:18:26;;;;;;;0.60;0.47;;;9.00;99.90;;;;;;5054170;28;20633;-93
2021/01/29 06:21:29;;;;;;;2.93;1.30;;;8.90;99.90;;;;;;5054178;28;20668;-93
2021/01/29 06:24:24;;;;;;;1.23;0.60;;;9.00;99.90;;;;;;5073315;28;20658;-91
2021/01/29 06:27:30;;;;;;;1.13;0.40;;;9.00;99.90;;;;;;5074228;28;20623;-94
2021/01/29 06:30:35;;;;;;;5.03;0.70;;;9.00;99.90;;;;;;5069026;28;20690;-92
2021/01/29 06:33:54;;;;;;;0.87;0.50;;;9.10;99.90;;;;;;5074684;28;21097;-95
2021/01/29 06:36:33;;;;;;;0.70;0.60;;;9.00;99.90;;;;;;4996989;28;20822;-92
2021/01/29 06:39:39;;;;;;;1.23;0.40;;;9.00;99.90;;;;;;5073543;28;20631;-93
2021/01/29 06:42:27;;;;;;;0.50;0.40;;;9.00;99.90;;;;;;5077311;28;20802;-94
2021/01/29 06:45:34;;;;;;;1.23;0.70;;;8.90;99.90;;;;;;5078233;28;20672;-92
2021/01/29 06:48:31;;;;;;;3.03;0.57;;;9.00;99.90;;;;;;5061879;28;20633;-91
2021/01/29 06:51:37;;;;;;;1.97;0.60;;;9.10;99.90;;;;;;5076341;28;20679;-92
2021/01/29 06:54:27;;;;;;;1.20;1.10;;;9.10;99.90;;;;;;5076885;28;20652;-93
2021/01/29 06:57:30;;;;;;;0.87;0.50;;;9.20;99.90;;;;;;5070833;28;20703;-92
2021/01/29 07:00:39;;;;;;;1.43;0.80;;;9.20;99.90;;;;;;5078925;28;20628;-90
2021/01/29 07:06:37;;;;;;;0.63;0.63;;;9.30;99.90;;;;;;5040490;28;20661;-92
2021/01/29 07:09:15;;;;;;;0.70;0.70;;;9.30;99.90;;;;;;5075262;28;20656;-93
2021/01/29 07:12:06;;;;;;;1.47;0.60;;;9.40;99.90;;;;;;5075750;28;20632;-93
2021/01/29 07:14:55;;;;;;;2.17;0.80;;;9.50;99.90;;;;;;5076824;28;20661;-93
2021/01/29 07:17:44;;;;;;;1.00;0.80;;;9.60;99.90;;;;;;5075523;28;20641;-93
2021/01/29 07:20:46;;;;;;;1.57;0.70;;;9.50;99.90;;;;;;5073348;28;20640;-92
2021/01/29 07:23:42;;;;;;;1.03;0.70;;;9.50;99.90;;;;;;5073153;28;20771;-91
2021/01/29 07:26:17;;;;;;;1.00;0.63;;;9.50;99.90;;;;;;5054501;28;20752;-91
2021/01/29 07:29:02;;;;;;;1.07;0.80;;;9.60;99.90;;;;;;5073449;28;21018;-93
2021/01/29 07:31:42;;;;;;;0.77;0.50;;;9.70;99.90;;;;;;5058012;28;20644;-91
2021/01/29 07:34:21;;;;;;;1.10;0.77;;;9.80;99.90;;;;;;5070233;28;20648;-93
2021/01/29 07:37:19;;;;;;;0.73;0.67;;;9.90;99.90;;;;;;5060569;28;20741;-92
2021/01/29 07:40:19;;;;;;;1.50;0.90;;;9.90;99.90;;;;;;5073462;28;20667;-91
2021/01/29 07:43:00;;;;;;;2.80;0.80;;;9.90;99.90;;;;;;5029775;28;20704;-92
2021/01/29 07:45:42;;;;;;;1.37;0.60;;;9.90;99.90;;;;;;5076938;28;20709;-92
2021/01/29 07:48:47;;;;;;;0.67;0.67;;;9.90;99.90;;;;;;5057568;28;21163;-93
2021/01/29 07:51:32;;;;;;;0.73;0.50;;;10.00;99.90;;;;;;5055635;28;20740;-93
2021/01/29 07:54:31;;;;;;;3.53;0.40;;;10.00;99.90;;;;;;5077308;28;20810;-93
2021/01/29 07:57:11;;;;;;;0.70;0.40;;;10.10;99.90;;;;;;5070771;28;20637;-91
2021/01/29 07:59:58;;;;;;;0.60;0.57;;;10.00;99.90;;;;;;5066581;28;20723;-91
2021/01/29 08:02:41;;;;;;;0.70;0.60;;;10.10;99.90;;;;;;5074976;28;21223;-93
2021/01/29 08:05:22;;;;;;;2.20;1.13;;;10.10;99.90;;;;;;5075080;28;20844;-92
2021/01/29 08:07:58;;;;;;;0.90;0.50;;;10.10;99.90;;;;;;5074869;28;20744;-94
2021/01/29 08:10:30;;;;;;;0.90;0.60;;;10.20;99.90;;;;;;5072672;28;20789;-93
2021/01/29 08:13:13;;;;;;;1.67;1.00;;;10.20;99.90;;;;;;5057355;28;21143;-94
2021/01/29 08:15:48;;;;;;;1.03;0.60;;;10.20;99.90;;;;;;5072647;28;20604;-92
2021/01/29 08:18:45;;;;;;;1.43;0.70;;;10.40;99.90;;;;;;5073142;28;20682;-93
2021/01/29 08:21:51;;;;;;;1.47;0.63;;;10.40;99.90;;;;;;5075031;28;20743;-92
2021/01/29 08:24:39;;;;;;;1.20;0.50;;;10.40;99.90;;;;;;5078080;28;20680;-94
2021/01/29 08:27:50;;;;;;;1.17;0.40;;;10.40;99.90;;;;;;5059525;28;21257;-93
2021/01/29 08:30:47;;;;;;;0.50;0.50;;;10.50;99.90;;;;;;5070488;28;20664;-92
2021/01/29 08:33:59;;;;;;;0.70;0.40;;;10.50;99.90;;;;;;5073451;28;20674;-93
2021/01/29 08:36:46;;;;;;;0.70;0.40;;;10.50;99.90;;;;;;5074892;28;21242;-93
2021/01/29 08:39:23;;;;;;;0.40;0.30;;;10.60;99.90;;;;;;5075092;28;20659;-93
2021/01/29 08:42:02;;;;;;;1.33;0.60;;;10.60;99.90;;;;;;5058363;28;20628;-92
2021/01/29 08:45:03;;;;;;;1.20;0.50;;;10.60;99.90;;;;;;5074651;28;20641;-92
2021/01/29 08:47:41;;;;;;;0.70;0.33;;;10.70;99.90;;;;;;5078909;28;20980;-93
2021/01/29 08:50:25;;;;;;;0.80;0.40;;;10.70;99.90;;;;;;5082848;28;20728;-91
2021/01/29 08:53:18;;;;;;;0.70;0.50;;;10.60;99.90;;;;;;5075746;28;21064;-93
2021/01/29 08:56:05;;;;;;;1.43;0.50;;;10.70;99.90;;;;;;5076299;28;20737;-92
2021/01/29 08:58:40;;;;;;;1.83;0.73;;;10.70;99.90;;;;;;5078807;28;20637;-94
2021/01/29 09:01:17;;;;;;;1.57;0.60;;;10.70;99.90;;;;;;5085986;28;20632;-93
2021/01/29 09:03:55;;;;;;;1.00;0.50;;;10.70;99.90;;;;;;5075513;28;20700;-93
2021/01/29 09:06:25;;;;;;;1.13;0.50;;;11.10;99.90;;;;;;5098514;28;20701;-93
2021/01/29 09:09:00;;;;;;;0.63;0.50;;;10.70;99.90;;;;;;5090000;28;20859;-92
2021/01/29 09:11:36;;;;;;;0.60;0.50;;;10.70;99.90;;;;;;5091669;28;20653;-92
2021/01/29 09:14:16;;;;;;;0.70;0.50;;;10.80;99.90;;;;;;5092357;28;20649;-93
2021/01/29 09:16:45;;;;;;;2.97;0.60;;;10.80;99.90;;;;;;5094236;28;20617;-91
2021/01/29 09:19:16;;;;;;;0.90;0.50;;;10.90;99.90;;;;;;5088475;28;20716;-92
2021/01/29 09:22:08;;;;;;;1.27;0.90;;;11.00;99.90;;;;;;5079536;28;20644;-92
2021/01/29 09:24:46;;;;;;;0.90;0.47;;;11.00;99.90;;;;;;5081274;28;20752;-94
2021/01/29 09:27:41;;;;;;;0.70;0.40;;;11.00;99.90;;;;;;5070121;28;20668;-91
2021/01/29 09:30:15;;;;;;;0.50;0.30;;;10.90;99.90;;;;;;5071142;28;20636;-91
2021/01/29 09:32:50;;;;;;;0.90;0.50;;;11.00;99.90;;;;;;5069821;28;20625;-90
2021/01/29 09:35:26;;;;;;;0.53;0.40;;;11.10;99.90;;;;;;5061789;28;20668;-92
2021/01/29 09:37:56;;;;;;;2.00;0.70;;;11.30;99.90;;;;;;5050836;28;21004;-90
2021/01/29 09:40:28;;;;;;;1.80;0.60;;;11.50;99.90;;;;;;5072281;28;20629;-91
2021/01/29 09:43:13;;;;;;;2.87;0.77;;;11.70;99.90;;;;;;5073505;28;20673;-92
2021/01/29 09:45:43;;;;;;;2.20;1.50;;;12.00;99.90;;;;;;5056224;28;20652;-91
2021/01/29 09:48:14;;;;;;;1.33;1.03;;;12.20;99.90;;;;;;5074699;28;20632;-90
2021/01/29 09:50:41;;;;;;;3.27;1.63;;;12.10;99.90;;;;;;5073251;28;20910;-91
2021/01/29 09:53:27;;;;;;;5.40;1.50;;;11.80;99.90;;;;;;5069014;28;20632;-92
2021/01/29 09:56:00;;;;;;;2.30;0.83;;;11.90;99.90;;;;;;5073424;28;20661;-91
2021/01/29 09:58:36;;;;;;;1.77;1.30;;;12.30;99.90;;;;;;5074364;28;20612;-91
2021/01/29 10:01:09;;;;;;;3.67;1.27;;;12.20;99.90;;;;;;5078361;28;20963;-91
2021/01/29 10:03:40;;;;;;;2.93;1.33;;;12.60;99.90;;;;;;5071450;28;20738;-92
2021/01/29 10:06:11;;;;;;;2.70;0.70;;;12.90;99.90;;;;;;5057456;28;20849;-91
2021/01/29 10:08:43;;;;;;;1.97;0.70;;;13.00;99.90;;;;;;5073979;28;20639;-91
2021/01/29 10:11:17;;;;;;;1.77;1.00;;;12.90;99.90;;;;;;5070105;28;20589;-91
2021/01/29 10:14:03;;;;;;;2.73;0.87;;;12.90;99.90;;;;;;5073950;28;20635;-93
2021/01/29 10:16:47;;;;;;;1.30;0.60;;;12.90;99.90;;;;;;5069320;28;20652;-91
2021/01/29 10:19:28;;;;;;;3.20;0.90;;;13.00;99.60;;;;;;5070020;28;20736;-93
2021/01/29 10:22:30;;;;;;;2.83;0.87;;;13.10;99.10;;;;;;5074424;28;21170;-93
2021/01/29 10:25:03;;;;;;;2.40;0.83;;;13.10;99.30;;;;;;5078278;28;20624;-91
2021/01/29 10:27:39;;;;;;;2.17;0.90;;;12.60;99.20;;;;;;5078035;28;20698;-92
2021/01/29 10:30:13;;;;;;;1.60;0.90;;;12.30;99.30;;;;;;5085938;28;20631;-91
2021/01/29 10:32:51;;;;;;;2.23;1.23;;;12.10;99.90;;;;;;5082372;28;20682;-93
2021/01/29 10:35:24;;;;;;;2.60;1.20;;;12.10;99.90;;;;;;5079807;28;20644;-92
2021/01/29 10:38:00;;;;;;;1.30;0.70;;;12.50;99.90;;;;;;5087565;28;21094;-91
2021/01/29 10:40:30;;;;;;;2.30;0.90;;;12.50;99.80;;;;;;5067399;28;20629;-91
2021/01/29 10:43:17;;;;;;;0.90;0.50;;;12.50;98.70;;;;;;5085487;28;20667;-93
2021/01/29 10:46:00;;;;;;;2.60;0.67;;;12.80;99.20;;;;;;5085515;28;20672;-92
2021/01/29 10:48:48;;;;;;;1.80;1.10;;;12.40;98.80;;;;;;5076854;28;20651;-91
2021/01/29 10:51:36;;;;;;;1.57;0.70;;;12.40;98.30;;;;;;5066870;28;20647;-94
2021/01/29 10:54:07;;;;;;;2.47;1.00;;;12.40;98.60;;;;;;5077842;28;20609;-92
2021/01/29 10:56:47;;;;;;;4.57;1.50;;;12.90;98.10;;;;;;5073079;28;20711;-90
2021/01/29 10:59:21;;;;;;;7.93;1.03;;;13.40;97.90;;;;;;5071295;28;20667;-93
2021/01/29 11:02:06;;;;;;;2.83;0.90;;;13.20;97.10;;;;;;5076866;28;20648;-92
2021/01/29 11:04:46;;;;;;;2.83;1.13;;;13.60;97.50;;;;;;5071399;28;20753;-95
2021/01/29 11:07:21;;;;;;;5.73;1.20;;;13.80;96.30;;;;;;5070322;28;20632;-92
2021/01/29 11:10:01;;;;;;;3.57;1.10;;;13.70;96.50;;;;;;5069914;28;20687;-91
2021/01/29 11:12:36;;;;;;;4.17;0.73;;;13.60;97.00;;;;;;5070138;28;20654;-91
2021/01/29 11:15:14;;;;;;;2.50;1.20;;;13.40;97.20;;;;;;5069448;28;20659;-92
2021/01/29 11:17:52;;;;;;;2.20;0.93;;;13.00;97.60;;;;;;5042167;28;20633;-91
2021/01/29 11:20:23;;;;;;;2.80;0.80;;;12.80;98.30;;;;;;5073715;28;21458;-92
2021/01/29 11:23:02;;;;;;;2.27;1.10;;;12.90;97.90;;;;;;5072432;28;20684;-91
2021/01/29 11:25:50;;;;;;;4.73;1.17;;;13.20;97.70;;;;;;5056506;28;20670;-91
2021/01/29 11:28:47;;;;;;;7.30;1.60;;;13.20;97.20;;;;;;5072746;28;20694;-93
2021/01/29 11:31:36;;;;;;;5.83;1.70;;;13.00;96.40;;;;;;5067512;28;20633;-92
2021/01/29 11:34:04;;;;;;;5.60;1.43;;;12.60;98.10;;;;;;5066590;28;20628;-93
2021/01/29 11:36:36;;;;;;;5.67;1.23;;;12.60;99.20;;;;;;5070089;28;20643;-91
2021/01/29 11:39:09;;;;;;;2.20;0.90;;;12.50;99.40;;;;;;5063973;28;20636;-93
2021/01/29 11:41:56;;;;;;;3.47;1.17;;;12.40;99.40;;;;;;5071811;28;20595;-93
2021/01/29 11:44:34;;;;;;;4.40;1.00;;;12.50;99.20;;;;;;5070238;28;20763;-92
2021/01/29 11:47:05;;;;;;;6.10;2.37;;;12.50;99.30;;;;;;5051513;28;20637;-92
2021/01/29 11:49:37;;;;;;;1.53;0.90;;;12.30;99.60;;;;;;5069167;28;20643;-91
2021/01/29 11:52:12;;;;;;;4.73;1.00;;;12.30;99.90;;;;;;5069247;28;21260;-91
2021/01/29 11:54:51;;;;;;;4.53;1.00;;;12.30;99.90;;;;;;5074820;28;21190;-92
2021/01/29 11:57:24;;;;;;;2.50;0.90;;;12.40;99.90;;;;;;5067070;28;20621;-92
2021/01/29 12:00:04;;;;;;;4.00;1.67;;;12.40;99.80;;;;;;5067829;28;20645;-92
2021/01/29 12:02:34;;;;;;;5.17;1.00;;;12.20;99.90;;;;;;5067113;28;20977;-91
2021/01/29 12:05:27;;;;;;;3.03;0.70;;;12.70;99.30;;;;;;5063363;28;20660;-93
2021/01/29 12:08:07;;;;;;;2.30;1.00;;;12.30;99.70;;;;;;5067831;28;20678;-91
2021/01/29 12:10:45;;;;;;;0.90;0.63;;;12.50;99.60;;;;;;5066639;28;20648;-92
2021/01/29 12:13:17;;;;;;;1.57;0.70;;;12.50;99.60;;;;;;5071779;28;20608;-91
2021/01/29 12:15:49;;;;;;;2.90;0.80;;;12.60;99.60;;;;;;5070175;28;21043;-91
2021/01/29 12:18:17;;;;;;;4.73;1.03;;;12.80;98.50;;;;;;5069320;28;20605;-91
2021/01/29 12:20:45;;;;;;;4.00;0.80;;;12.40;99.60;;;;;;5070894;28;20633;-90
2021/01/29 12:23:23;;;;;;;1.70;1.10;;;12.20;99.80;;;;;;5072443;28;20663;-91
2021/01/29 12:26:08;;;;;;;2.50;0.90;;;12.00;99.90;;;;;;5065260;28;20660;-93
2021/01/29 12:29:00;;;;;;;2.90;1.07;;;12.00;99.90;;;;;;5070628;28;20628;-91
2021/01/29 12:31:38;;;;;;;3.33;1.30;;;12.00;99.90;;;;;;5065602;28;20723;-91
2021/01/29 12:34:09;;;;;;;2.80;1.13;;;12.00;99.40;;;;;;5068118;28;20700;-91
2021/01/29 12:36:39;;;;;;;4.60;1.13;;;12.00;98.60;;;;;;5068796;28;20625;-92
2021/01/29 12:39:13;;;;;;;3.90;1.53;;;11.90;98.70;;;;;;5066367;28;20637;-91
2021/01/29 12:41:48;;;;;;;8.57;1.03;;;11.80;98.70;;;;;;5072899;28;20673;-91
2021/01/29 12:44:35;;;;;;;5.13;1.73;;;11.60;99.20;;;;;;5068481;28;20797;-92
2021/01/29 12:47:12;;;;;;;5.43;1.20;;;11.60;99.90;;;;;;5066109;28;20585;-92
2021/01/29 12:49:46;;;;;;;2.20;1.10;;;11.60;99.10;;;;;;5072562;28;20650;-92
2021/01/29 12:52:24;;;;;;;5.70;1.30;;;11.70;99.60;;;;;;5069298;28;20629;-91
2021/01/29 12:55:00;;;;;;;6.40;1.70;;;11.80;99.60;;;;;;5068814;28;20765;-92
2021/01/29 12:57:30;;;;;;;2.43;1.37;;;11.80;99.50;;;;;;5066544;28;20637;-93
2021/01/29 13:00:07;;;;;;;3.23;1.27;;;11.80;99.60;;;;;;5068136;28;20656;-92
2021/01/29 13:02:52;;;;;;;9.90;3.10;;;11.70;99.80;;;;;;5070297;28;20731;-91
2021/01/29 13:05:27;;;;;;;5.00;1.67;;;11.80;99.90;;;;;;5068974;28;20725;-91
2021/01/29 13:08:11;;;;;;;6.23;3.70;;;11.90;99.90;;;;;;5060629;28;20628;-92
2021/01/29 13:10:42;;;;;;;5.43;1.27;;;11.90;99.90;;;;;;5064704;28;21197;-91
2021/01/29 13:13:20;;;;;;;1.07;0.60;;;11.90;99.90;;;;;;5061488;28;20632;-91
2021/01/29 13:16:01;;;;;;;2.37;1.73;;;11.70;99.90;;;;;;5072536;28;20763;-92
2021/01/29 13:18:43;;;;;;;2.90;0.90;;;11.70;99.90;;;;;;5067030;28;20809;-92
2021/01/29 13:21:18;;;;;;;2.90;0.70;;;11.70;99.90;;;;;;5064491;28;21025;-92
2021/01/29 13:23:46;;;;;;;2.07;0.70;;;11.90;99.90;;;;;;5065900;28;20767;-92
2021/01/29 13:26:26;;;;;;;2.73;0.80;;;11.80;99.90;;;;;;5064590;28;20664;-90
2021/01/29 13:28:59;;;;;;;3.13;1.73;;;12.10;99.90;;;;;;5069383;28;20628;-92
2021/01/29 13:31:31;;;;;;;1.30;0.87;;;13.00;99.50;;;;;;5066128;28;20632;-92
2021/01/29 13:34:01;;;;;;;4.00;1.40;;;13.10;99.40;;;;;;5067267;28;20593;-91
2021/01/29 13:36:33;;;;;;;1.30;0.60;;;12.60;99.90;;;;;;5066869;28;21187;-91
2021/01/29 13:39:20;;;;;;;2.20;0.60;;;12.10;99.90;;;;;;5047588;28;20624;-91
2021/01/29 13:41:50;;;;;;;1.50;0.57;;;12.00;99.90;;;;;;5046076;28;20651;-92
2021/01/29 13:44:38;;;;;;;1.47;0.70;;;11.90;99.90;;;;;;5060443;28;20657;-91
2021/01/29 13:47:16;;;;;;;1.80;0.60;;;12.00;99.90;;;;;;5065411;28;20680;-91
2021/01/29 13:49:44;;;;;;;1.70;0.90;;;12.60;99.90;;;;;;5062308;28;20628;-92
2021/01/29 13:52:26;;;;;;;0.80;0.47;;;13.50;98.80;;;;;;5063556;28;20617;-91
2021/01/29 13:54:57;;;;;;;2.40;0.70;;;13.60;97.60;;;;;;5066935;28;20644;-90
2021/01/29 13:57:33;;;;;;;2.90;0.70;;;12.70;99.50;;;;;;5063525;28;20625;-91
2021/01/29 14:00:11;;;;;;;1.33;1.23;;;12.50;99.60;;;;;;5062824;28;20628;-92
2021/01/29 14:02:46;;;;;;;2.30;0.60;;;12.40;99.90;;;;;;5067560;28;20637;-91